createdAt,value
2023-02-24T00:02:05.599Z,73.16
2023-02-24T00:04:39.487Z,73.09
2023-02-24T00:07:09.023Z,73.17
2023-02-24T00:09:37.129Z,73.28
2023-02-24T00:12:08.840Z,73.39
2023-02-24T00:14:39.147Z,73.67
2023-02-24T00:17:10.267Z,73.39
2023-02-24T00:19:38.543Z,73.67
2023-02-24T00:22:07.987Z,73.17
2023-02-24T00:24:36.094Z,73.32
2023-02-24T00:27:11.028Z,73.39
2023-02-24T00:29:39.947Z,73.33
2023-02-24T00:32:08.179Z,73.35
2023-02-24T00:34:37.522Z,73.33
2023-02-24T00:37:06.902Z,73.57
2023-02-24T00:39:35.465Z,73.44
2023-02-24T00:42:05.910Z,73.23
2023-02-24T00:44:36.999Z,73.17
2023-02-24T00:47:07.031Z,73.70
2023-02-24T00:49:36.086Z,73.22
2023-02-24T00:52:08.003Z,73.30
2023-02-24T00:54:36.754Z,73.46
2023-02-24T00:57:03.988Z,73.35
2023-02-24T00:59:30.960Z,73.41
2023-02-24T01:01:58.115Z,73.42
2023-02-24T01:04:25.544Z,73.61
2023-02-24T01:06:59.950Z,73.65
2023-02-24T01:09:30.089Z,73.50
2023-02-24T01:12:17.234Z,73.41
2023-02-24T01:14:49.391Z,73.27
2023-02-24T01:17:19.215Z,73.31
2023-02-24T01:19:49.883Z,73.54
2023-02-24T01:22:19.795Z,73.71
2023-02-24T01:24:47.169Z,73.38
2023-02-24T01:27:18.499Z,73.80
2023-02-24T01:29:47.459Z,73.53
2023-02-24T01:32:19.480Z,73.43
2023-02-24T01:34:47.668Z,73.50
2023-02-24T01:37:16.335Z,73.39
2023-02-24T01:39:45.057Z,73.09
2023-02-24T01:42:20.524Z,73.08
2023-02-24T01:44:47.848Z,73.20
2023-02-24T01:47:18.472Z,73.16
2023-02-24T01:49:49.774Z,73.03
2023-02-24T01:52:26.192Z,72.74
2023-02-24T01:55:02.845Z,72.84
2023-02-24T01:57:35.307Z,73.35
2023-02-24T02:00:12.026Z,72.88
2023-02-24T02:02:47.401Z,73.22
2023-02-24T02:05:14.873Z,73.25
2023-02-24T02:07:43.536Z,73.62
2023-02-24T02:10:13.393Z,73.43
2023-02-24T02:12:44.321Z,73.70
2023-02-24T02:15:20.450Z,73.42
2023-02-24T02:18:28.018Z,72.92
2023-02-24T02:21:46.081Z,72.81
2023-02-24T02:24:27.554Z,72.94
2023-02-24T02:27:33.954Z,73.09
2023-02-24T02:31:04.195Z,73.18
2023-02-24T02:34:05.652Z,72.98
2023-02-24T02:36:36.591Z,73.40
2023-02-24T02:39:06.292Z,72.86
2023-02-24T02:42:12.545Z,73.25
2023-02-24T02:45:21.398Z,72.99
2023-02-24T02:47:54.430Z,73.59
2023-02-24T02:50:27.022Z,73.28
2023-02-24T02:53:00.743Z,73.48
2023-02-24T02:55:40.460Z,73.25
2023-02-24T02:58:15.187Z,73.30
2023-02-24T03:00:58.684Z,73.52
2023-02-24T03:03:27.936Z,73.50
2023-02-24T03:06:11.929Z,73.21
2023-02-24T03:08:44.193Z,73.70
2023-02-24T03:11:15.326Z,73.84
2023-02-24T03:13:45.421Z,73.54
2023-02-24T03:16:14.614Z,73.60
2023-02-24T03:18:52.991Z,73.27
2023-02-24T03:21:39.868Z,73.35
2023-02-24T03:24:07.734Z,73.60
2023-02-24T03:27:01.523Z,73.30
2023-02-24T03:29:45.959Z,73.29
2023-02-24T03:32:20.128Z,73.18
2023-02-24T03:35:04.180Z,73.32
2023-02-24T03:37:33.510Z,73.26
2023-02-24T03:40:17.702Z,73.33
2023-02-24T03:42:57.588Z,73.47
2023-02-24T03:45:27.751Z,73.42
2023-02-24T03:47:56.055Z,73.72
2023-02-24T03:50:25.285Z,73.44
2023-02-24T03:53:22.316Z,73.21
2023-02-24T03:56:10.806Z,73.03
2023-02-24T03:58:57.533Z,73.16
2023-02-24T04:01:48.736Z,73.38
2023-02-24T04:04:37.915Z,73.05
2023-02-24T04:07:53.208Z,72.94
2023-02-24T04:10:52.425Z,73.23
2023-02-24T04:13:49.791Z,73.05
2023-02-24T04:16:36.389Z,73.51
2023-02-24T04:19:13.988Z,73.30
2023-02-24T04:21:45.217Z,73.61
2023-02-24T04:24:21.990Z,73.55
2023-02-24T04:26:51.753Z,73.86
2023-02-24T04:29:23.695Z,73.53
2023-02-24T04:31:59.408Z,73.36
2023-02-24T04:34:32.198Z,73.63
2023-02-24T04:37:02.220Z,74.04
2023-02-24T04:39:31.647Z,73.87
2023-02-24T04:42:01.604Z,73.58
2023-02-24T04:44:29.109Z,73.66
2023-02-24T04:46:56.509Z,73.81
2023-02-24T04:49:23.612Z,73.52
2023-02-24T04:51:51.553Z,73.63
2023-02-24T04:54:20.583Z,73.86
2023-02-24T04:56:50.650Z,73.53
2023-02-24T04:59:19.817Z,73.65
2023-02-24T05:01:51.482Z,73.70
2023-02-24T05:04:19.613Z,73.58
2023-02-24T05:06:47.238Z,73.85
2023-02-24T05:09:17.967Z,73.69
2023-02-24T05:11:49.331Z,73.79
2023-02-24T05:14:20.687Z,73.87
2023-02-24T05:16:49.229Z,74.00
2023-02-24T05:19:38.269Z,73.87
2023-02-24T05:22:07.158Z,73.98
2023-02-24T05:24:34.922Z,73.91
2023-02-24T05:27:03.616Z,74.02
2023-02-24T05:29:35.224Z,73.62
2023-02-24T05:32:04.290Z,73.97
2023-02-24T05:34:33.091Z,73.67
2023-02-24T05:37:04.399Z,73.67
2023-02-24T05:39:31.438Z,74.13
2023-02-24T05:41:58.475Z,73.91
2023-02-24T05:44:26.992Z,74.09
2023-02-24T05:46:58.622Z,73.59
2023-02-24T05:49:32.961Z,73.73
2023-02-24T05:52:07.276Z,73.80
2023-02-24T05:54:41.089Z,73.73
2023-02-24T05:57:12.211Z,73.89
2023-02-24T05:59:41.135Z,73.99
2023-02-24T06:02:17.454Z,73.73
2023-02-24T06:04:53.848Z,73.72
2023-02-24T06:07:27.339Z,73.62
2023-02-24T06:09:58.821Z,74.10
2023-02-24T06:12:34.503Z,73.80
2023-02-24T06:15:07.213Z,74.02
2023-02-24T06:17:34.194Z,73.69
2023-02-24T06:20:01.152Z,73.79
2023-02-24T06:22:28.122Z,74.02
2023-02-24T06:24:56.719Z,73.84
2023-02-24T06:27:24.548Z,74.19
2023-02-24T06:29:54.456Z,74.12
2023-02-24T06:32:25.936Z,73.83
2023-02-24T06:34:53.927Z,74.14
2023-02-24T06:37:22.696Z,74.29
2023-02-24T06:39:49.719Z,74.02
2023-02-24T06:42:16.695Z,73.98
2023-02-24T06:44:43.692Z,73.79
2023-02-24T06:47:16.211Z,74.12
2023-02-24T06:49:43.341Z,74.35
2023-02-24T06:52:11.545Z,74.12
2023-02-24T06:54:38.802Z,74.02
2023-02-24T06:57:05.826Z,74.09
2023-02-24T06:59:32.781Z,73.91
2023-02-24T07:02:04.081Z,74.29
2023-02-24T07:04:43.380Z,74.08
2023-02-24T07:07:10.970Z,74.11
2023-02-24T07:09:37.875Z,74.10
2023-02-24T07:12:05.279Z,74.08
2023-02-24T07:14:32.187Z,74.52
2023-02-24T07:16:59.773Z,74.13
2023-02-24T07:19:32.342Z,74.00
2023-02-24T07:22:03.416Z,74.16
2023-02-24T07:24:36.481Z,74.29
2023-02-24T07:27:08.200Z,74.39
2023-02-24T07:29:36.298Z,74.26
2023-02-24T07:32:08.412Z,74.20
2023-02-24T07:34:39.650Z,74.19
2023-02-24T07:37:08.412Z,74.09
2023-02-24T07:39:39.028Z,74.67
2023-02-24T07:42:08.794Z,74.40
2023-02-24T07:44:45.434Z,74.37
2023-02-24T07:47:12.472Z,74.39
2023-02-24T07:49:40.840Z,74.91
2023-02-24T07:52:08.684Z,74.69
2023-02-24T07:54:37.297Z,74.45
2023-02-24T07:57:06.284Z,74.46
2023-02-24T07:59:37.706Z,74.39
2023-02-24T08:02:07.574Z,74.62
2023-02-24T08:04:36.251Z,74.42
2023-02-24T08:07:04.149Z,74.53
2023-02-24T08:09:45.463Z,74.82
2023-02-24T08:12:21.886Z,74.62
2023-02-24T08:14:52.124Z,74.70
2023-02-24T08:17:26.209Z,74.92
2023-02-24T08:20:15.637Z,74.86
2023-02-24T08:22:46.623Z,75.02
2023-02-24T08:25:19.123Z,74.84
2023-02-24T08:28:07.460Z,75.00
2023-02-24T08:30:40.180Z,75.07
2023-02-24T08:33:11.438Z,75.27
2023-02-24T08:35:44.278Z,75.09
2023-02-24T08:38:18.747Z,75.26
2023-02-24T08:40:53.609Z,75.25
2023-02-24T08:43:30.836Z,75.47
2023-02-24T08:46:13.291Z,75.09
2023-02-24T08:48:46.470Z,75.47
2023-02-24T08:51:35.823Z,75.33
2023-02-24T08:54:31.861Z,75.32
2023-02-24T08:57:08.105Z,75.92
2023-02-24T08:59:40.998Z,75.52
2023-02-24T09:02:18.755Z,75.54
2023-02-24T09:04:49.058Z,75.60
2023-02-24T09:07:22.118Z,75.51
2023-02-24T09:09:49.475Z,75.58
2023-02-24T09:12:24.794Z,75.61
2023-02-24T09:15:00.986Z,75.48
2023-02-24T09:17:40.329Z,75.90
2023-02-24T09:20:32.235Z,75.98
2023-02-24T09:23:07.505Z,75.96
2023-02-24T09:25:49.279Z,75.84
2023-02-24T09:28:24.555Z,76.16
2023-02-24T09:30:55.034Z,75.94
2023-02-24T09:33:29.391Z,76.31
2023-02-24T09:36:10.321Z,76.80
2023-02-24T09:38:59.509Z,76.67
2023-02-24T09:41:56.157Z,77.29
2023-02-24T09:44:26.165Z,77.24
2023-02-24T09:47:00.605Z,77.48
2023-02-24T09:49:46.508Z,77.47
2023-02-24T09:52:17.580Z,77.70
2023-02-24T09:55:09.081Z,77.53
2023-02-24T09:58:16.921Z,77.34
2023-02-24T10:01:20.983Z,77.71
2023-02-24T10:04:18.562Z,77.75
2023-02-24T10:06:58.782Z,77.68
2023-02-24T10:10:19.274Z,77.70
2023-02-24T10:13:17.159Z,77.85
2023-02-24T10:15:57.825Z,78.04
2023-02-24T10:19:01.227Z,78.65
2023-02-24T10:22:02.685Z,78.68
2023-02-24T10:24:41.252Z,78.33
2023-02-24T10:27:23.858Z,78.39
2023-02-24T10:30:19.646Z,78.45
2023-02-24T10:32:58.629Z,78.15
2023-02-24T10:35:33.551Z,77.83
2023-02-24T10:38:05.762Z,77.82
2023-02-24T10:40:58.529Z,78.56
2023-02-24T10:43:30.272Z,78.08
2023-02-24T10:46:06.805Z,77.77
2023-02-24T10:48:42.247Z,77.73
2023-02-24T10:51:30.222Z,78.06
2023-02-24T10:54:31.343Z,78.35
2023-02-24T10:57:07.788Z,79.09
2023-02-24T11:00:15.507Z,78.68
2023-02-24T11:03:22.026Z,78.80
2023-02-24T11:06:03.934Z,78.19
2023-02-24T11:08:39.673Z,78.38
2023-02-24T11:11:29.720Z,78.43
2023-02-24T11:14:21.275Z,78.04
2023-02-24T11:17:11.836Z,77.64
2023-02-24T11:19:55.485Z,77.86
2023-02-24T11:22:35.752Z,77.82
2023-02-24T11:25:27.289Z,77.58
2023-02-24T11:27:57.733Z,76.94
2023-02-24T11:30:54.751Z,77.77
2023-02-24T11:34:10.488Z,78.03
2023-02-24T11:36:48.974Z,78.43
2023-02-24T11:39:45.960Z,78.70
2023-02-24T11:42:21.462Z,78.12
2023-02-24T11:45:13.106Z,77.82
2023-02-24T11:47:50.105Z,78.00
2023-02-24T11:50:50.473Z,78.43
2023-02-24T11:53:45.808Z,78.57
2023-02-24T11:56:28.171Z,78.44
2023-02-24T11:59:12.700Z,78.47
2023-02-24T12:01:48.426Z,78.54
2023-02-24T12:04:39.312Z,79.03
2023-02-24T12:07:32.356Z,79.18
2023-02-24T12:10:17.867Z,79.68
2023-02-24T12:12:59.910Z,78.44
2023-02-24T12:15:43.009Z,79.14
2023-02-24T12:18:40.894Z,80.15
2023-02-24T12:21:09.998Z,78.09
2023-02-24T12:23:44.492Z,78.45
2023-02-24T12:26:42.575Z,79.70
2023-02-24T12:30:07.668Z,79.71
2023-02-24T12:32:34.686Z,76.82
2023-02-24T12:35:22.521Z,77.63
2023-02-24T12:38:17.665Z,76.82
2023-02-24T12:41:06.631Z,76.57
2023-02-24T12:43:58.262Z,76.87
2023-02-24T12:46:37.244Z,75.52
2023-02-24T12:49:40.250Z,76.22
2023-02-24T12:52:40.820Z,75.71
2023-02-24T12:55:25.820Z,74.99
2023-02-24T12:58:26.434Z,75.68
2023-02-24T13:01:15.400Z,74.54
2023-02-24T13:03:59.660Z,75.52
2023-02-24T13:06:57.095Z,76.59
2023-02-24T13:10:15.405Z,76.95
2023-02-24T13:13:30.187Z,76.43
2023-02-24T13:16:02.137Z,75.71
2023-02-24T13:18:35.817Z,75.78
2023-02-24T13:21:18.708Z,75.54
2023-02-24T13:24:03.397Z,76.13
2023-02-24T13:26:32.751Z,75.70
2023-02-24T13:29:12.740Z,75.33
2023-02-24T13:31:47.820Z,75.40
2023-02-24T13:34:22.024Z,76.07
2023-02-24T13:36:50.661Z,76.03
2023-02-24T13:39:37.532Z,76.67
2023-02-24T13:42:26.245Z,76.03
2023-02-24T13:45:20.966Z,76.99
2023-02-24T13:48:01.810Z,76.29
2023-02-24T13:50:43.369Z,76.95
2023-02-24T13:53:23.719Z,77.11
2023-02-24T13:56:34.027Z,78.70
2023-02-24T13:59:15.802Z,78.57
2023-02-24T14:02:16.792Z,78.82
2023-02-24T14:04:55.079Z,78.04
2023-02-24T14:07:31.319Z,77.13
2023-02-24T14:10:02.598Z,76.17
2023-02-24T14:12:35.965Z,76.56
2023-02-24T14:15:05.165Z,75.81
2023-02-24T14:17:37.179Z,75.98
2023-02-24T14:20:09.853Z,76.36
2023-02-24T14:22:44.626Z,75.75
2023-02-24T14:25:13.336Z,75.23
2023-02-24T14:27:42.954Z,74.54
2023-02-24T14:30:28.299Z,75.46
2023-02-24T14:32:55.370Z,74.13
2023-02-24T14:35:45.204Z,74.66
2023-02-24T14:38:34.929Z,74.38
2023-02-24T14:41:05.631Z,73.89
2023-02-24T14:43:39.737Z,73.87
2023-02-24T14:46:06.862Z,74.20
2023-02-24T14:48:33.883Z,73.98
2023-02-24T14:51:12.573Z,74.77
2023-02-24T14:53:50.037Z,74.62
2023-02-24T14:56:19.394Z,74.09
2023-02-24T14:58:55.883Z,74.60
2023-02-24T15:01:33.714Z,74.98
2023-02-24T15:04:30.397Z,74.53
2023-02-24T15:06:57.532Z,74.05
2023-02-24T15:09:34.133Z,74.73
2023-02-24T15:12:19.244Z,73.97
2023-02-24T15:15:08.526Z,73.94
2023-02-24T15:17:40.860Z,73.73
2023-02-24T15:20:32.651Z,73.31
2023-02-24T15:23:00.160Z,73.18
2023-02-24T15:25:48.122Z,73.49
2023-02-24T15:28:30.877Z,73.15
2023-02-24T15:31:19.780Z,73.38
2023-02-24T15:34:00.225Z,73.65
2023-02-24T15:36:33.504Z,72.97
2023-02-24T15:39:06.656Z,73.25
2023-02-24T15:41:44.037Z,73.48
2023-02-24T15:44:31.397Z,73.48
2023-02-24T15:47:00.881Z,73.35
2023-02-24T15:49:27.858Z,73.33
2023-02-24T15:51:59.523Z,73.31
2023-02-24T15:54:36.275Z,73.04
2023-02-24T15:57:05.276Z,73.02
2023-02-24T15:59:32.492Z,73.20
2023-02-24T16:01:59.420Z,73.07
2023-02-24T16:04:27.511Z,72.83
2023-02-24T16:06:57.508Z,73.10
2023-02-24T16:09:37.411Z,73.13
2023-02-24T16:12:21.843Z,73.06
2023-02-24T16:15:02.104Z,73.39
2023-02-24T16:17:40.877Z,73.08
2023-02-24T16:20:28.132Z,72.98
2023-02-24T16:23:00.673Z,72.71
2023-02-24T16:25:30.107Z,72.97
2023-02-24T16:27:59.617Z,72.69
2023-02-24T16:30:30.326Z,72.77
2023-02-24T16:33:01.111Z,72.73
2023-02-24T16:35:30.898Z,73.18
2023-02-24T16:37:57.815Z,72.62
2023-02-24T16:40:30.705Z,72.80
2023-02-24T16:42:57.702Z,72.61
2023-02-24T16:45:29.370Z,72.24
2023-02-24T16:48:02.157Z,71.71
2023-02-24T16:50:39.093Z,71.85
2023-02-24T16:53:18.608Z,71.61
2023-02-24T16:55:47.142Z,70.95
2023-02-24T16:58:15.089Z,71.74
2023-02-24T17:00:46.422Z,71.53
2023-02-24T17:03:33.334Z,71.31
2023-02-24T17:06:00.431Z,71.54
2023-02-24T17:08:27.603Z,71.59
2023-02-24T17:10:54.686Z,71.51
2023-02-24T17:13:22.432Z,70.93
2023-02-24T17:15:56.907Z,71.17
2023-02-24T17:18:25.779Z,70.97
2023-02-24T17:20:53.467Z,70.96
2023-02-24T17:23:20.616Z,71.20
2023-02-24T17:25:54.781Z,71.16
2023-02-24T17:28:22.214Z,70.78
2023-02-24T17:30:49.232Z,71.28
2023-02-24T17:33:16.260Z,70.79
2023-02-24T17:35:43.904Z,71.30
2023-02-24T17:38:22.266Z,71.35
2023-02-24T17:40:49.233Z,71.23
2023-02-24T17:43:16.228Z,71.33
2023-02-24T17:45:46.041Z,71.23
2023-02-24T17:48:15.097Z,71.00
2023-02-24T17:50:43.791Z,70.83
2023-02-24T17:53:10.961Z,70.72
2023-02-24T17:55:38.268Z,70.73
2023-02-24T17:58:05.452Z,70.61
2023-02-24T18:00:32.446Z,70.94
2023-02-24T18:03:01.638Z,70.49
2023-02-24T18:05:29.886Z,70.95
2023-02-24T18:07:59.953Z,70.61
2023-02-24T18:10:27.313Z,70.49
2023-02-24T18:12:54.277Z,70.63
2023-02-24T18:15:21.243Z,70.61
2023-02-24T18:17:48.172Z,70.82
2023-02-24T18:20:15.168Z,70.68
2023-02-24T18:22:42.233Z,70.83
2023-02-24T18:25:09.716Z,70.69
2023-02-24T18:27:36.855Z,70.91
2023-02-24T18:30:06.685Z,70.83
2023-02-24T18:32:34.419Z,70.58
2023-02-24T18:35:01.523Z,70.57
2023-02-24T18:37:28.493Z,70.99
2023-02-24T18:39:55.508Z,70.74
2023-02-24T18:42:22.586Z,70.89
2023-02-24T18:44:49.496Z,70.51
2023-02-24T18:47:16.561Z,70.63
2023-02-24T18:49:43.496Z,70.40
2023-02-24T18:52:11.729Z,69.62
2023-02-24T18:54:39.073Z,69.74
2023-02-24T18:57:05.998Z,70.20
2023-02-24T18:59:33.149Z,69.49
2023-02-24T19:02:00.218Z,69.72
2023-02-24T19:04:27.230Z,69.52
2023-02-24T19:06:54.250Z,68.99
2023-02-24T19:09:22.318Z,69.01
2023-02-24T19:11:50.182Z,69.20
2023-02-24T19:14:17.721Z,69.07
2023-02-24T19:16:45.208Z,69.04
2023-02-24T19:19:16.384Z,69.01
2023-02-24T19:21:45.324Z,69.08
2023-02-24T19:24:13.665Z,69.30
2023-02-24T19:26:42.542Z,69.53
2023-02-24T19:29:10.784Z,69.49
2023-02-24T19:31:38.744Z,69.64
2023-02-24T19:34:11.042Z,69.67
2023-02-24T19:36:38.900Z,69.32
2023-02-24T19:39:12.218Z,69.68
2023-02-24T19:41:39.314Z,69.50
2023-02-24T19:44:06.475Z,69.16
2023-02-24T19:46:34.254Z,69.57
2023-02-24T19:49:01.805Z,69.49
2023-02-24T19:51:29.587Z,69.92
2023-02-24T19:54:00.307Z,69.41
2023-02-24T19:56:31.185Z,69.66
2023-02-24T19:59:00.056Z,69.58
2023-02-24T20:01:29.561Z,69.93
2023-02-24T20:04:01.488Z,70.18
2023-02-24T20:06:33.465Z,70.11
2023-02-24T20:09:00.735Z,70.24
2023-02-24T20:11:29.712Z,70.03
2023-02-24T20:13:59.552Z,70.16
2023-02-24T20:16:31.954Z,70.40
2023-02-24T20:19:00.016Z,70.82
2023-02-24T20:21:27.906Z,70.85
2023-02-24T20:23:54.841Z,70.24
2023-02-24T20:26:22.536Z,70.43
2023-02-24T20:28:49.701Z,70.69
2023-02-24T20:31:19.442Z,70.60
2023-02-24T20:33:48.538Z,70.46
2023-02-24T20:36:22.587Z,70.44
2023-02-24T20:38:50.518Z,70.66
2023-02-24T20:41:19.258Z,70.55
2023-02-24T20:43:46.704Z,70.51
2023-02-24T20:46:17.916Z,70.40
2023-02-24T20:48:45.231Z,70.52
2023-02-24T20:51:12.676Z,70.74
2023-02-24T20:53:56.138Z,70.73
2023-02-24T20:56:25.477Z,70.48
2023-02-24T20:58:59.889Z,70.52
2023-02-24T21:01:28.561Z,70.55
2023-02-24T21:03:55.654Z,70.70
2023-02-24T21:06:23.116Z,70.64
2023-02-24T21:08:51.074Z,70.86
2023-02-24T21:11:18.087Z,70.80
2023-02-24T21:13:49.249Z,70.74
2023-02-24T21:16:17.894Z,70.46
2023-02-24T21:18:47.405Z,70.92
2023-02-24T21:21:15.274Z,70.98
2023-02-24T21:23:43.617Z,70.50
2023-02-24T21:26:12.551Z,70.70
2023-02-24T21:28:40.543Z,70.79
2023-02-24T21:31:14.188Z,70.38
2023-02-24T21:33:41.493Z,70.70
2023-02-24T21:36:14.246Z,70.67
2023-02-24T21:38:41.509Z,70.78
2023-02-24T21:41:14.571Z,70.69
2023-02-24T21:43:44.025Z,70.59
2023-02-24T21:46:13.333Z,70.96
2023-02-24T21:48:41.682Z,71.06
2023-02-24T21:51:11.918Z,70.56
2023-02-24T21:53:43.370Z,71.22
2023-02-24T21:56:22.131Z,70.75
2023-02-24T21:58:55.733Z,70.91
2023-02-24T22:01:27.292Z,71.07
2023-02-24T22:03:56.923Z,71.19
2023-02-24T22:06:26.155Z,71.12
2023-02-24T22:08:55.276Z,70.85
2023-02-24T22:11:23.612Z,71.10
2023-02-24T22:13:50.853Z,71.29
2023-02-24T22:16:25.190Z,70.88
2023-02-24T22:18:55.148Z,70.97
2023-02-24T22:21:28.144Z,70.86
2023-02-24T22:23:59.417Z,71.18
2023-02-24T22:26:28.580Z,71.17
2023-02-24T22:28:55.650Z,71.11
2023-02-24T22:31:28.282Z,70.72
2023-02-24T22:33:55.388Z,70.99
2023-02-24T22:36:25.900Z,71.09
2023-02-24T22:38:55.614Z,71.05
2023-02-24T22:41:29.669Z,70.84
2023-02-24T22:43:56.637Z,71.10
2023-02-24T22:46:37.227Z,70.98
2023-02-24T22:49:05.517Z,71.45
2023-02-24T22:51:32.596Z,71.35
2023-02-24T22:53:59.568Z,71.30
2023-02-24T22:56:28.947Z,71.24
2023-02-24T22:58:57.144Z,71.29
2023-02-24T23:01:30.171Z,71.20
2023-02-24T23:04:01.246Z,71.12
2023-02-24T23:06:29.337Z,71.37
2023-02-24T23:08:59.437Z,71.16
2023-02-24T23:11:33.127Z,71.26
2023-02-24T23:14:05.393Z,71.21
2023-02-24T23:16:35.232Z,71.70
2023-02-24T23:19:12.804Z,71.27
2023-02-24T23:21:46.155Z,71.41
2023-02-24T23:24:15.087Z,71.40
2023-02-24T23:26:51.774Z,71.45
2023-02-24T23:29:19.547Z,71.42
2023-02-24T23:31:47.758Z,71.40
2023-02-24T23:34:15.622Z,71.82
2023-02-24T23:36:45.913Z,71.58
2023-02-24T23:39:16.307Z,71.52
2023-02-24T23:41:43.937Z,72.11
2023-02-24T23:44:12.263Z,72.00
2023-02-24T23:46:39.290Z,71.87
2023-02-24T23:49:06.304Z,72.37
2023-02-24T23:51:49.830Z,72.29
2023-02-24T23:54:20.325Z,72.03
2023-02-24T23:56:47.764Z,72.08
2023-02-24T23:59:15.259Z,71.83
